Main page
METAR-TAF:

Airports :

Eleusina, Greece

latitude: 38-04N, longitude: 023-33E, elevation: 44 m

Current weather observation

The report was made 24 minutes ago, at 17:50 UTC
Wind 3 kt from variable directions
Temperature 28°C
Humidity 37%
Pressure 1011 hPa
Visibility 10 km or more
Few clouds at a height of 3000 ft

METAR: LGEL 291750Z VRB03KT 9999 FEW030 28/12 Q1011

Time: 21:14 (18:14 UTC)

Forecast

The report was made 1 hour and 14 minutes ago, at 17:00 UTC
Forecast valid from 29 at 18 UTC to 30 at 18 UTC
Wind 10 kt from the North/Northwest with gusts up to 20 kt
Visibility 10 km or more
Few clouds at a height of 2500 ft
Becoming
from 29 at 20 UTC to 29 at 22 UTC
Wind 3 kt from variable directions
Becoming
from 30 at 10 UTC to 30 at 12 UTC
Wind 10 kt from the South/Southwest

TAF: LGEL 291700Z 2918/3018 34010G20KT 9999 FEW025 BECMG 2920/2922 VRB03KT BECMG 3010/3012 20010KT

METAR-TAF

Weather observations and forecasts of more than 4000 airports (METAR and TAF reports).

The available stations are represented by yellow and red dots on the map.

Hover mouse over dot to see the name of the station.

Then click to see weather observations and forecasts.

To change the map : click on the green buttons with a black cross to zoom in, on the green button with a dash to zoom out, or on the green arrows for adjacent maps.


METAR-TAF: